Time;durP1;ratioP1;P1;durP2;ratioP2;P2;SDS_P1;SDS_P2;PMS_P1;PMS_P2;Temp;Humidity;BMP_temperature;BMP_pressure;BME280_temperature;BME280_humidity;BME280_pressure;Samples;Min_cycle;Max_cycle;Signal;HPM_P1;HPM_P2
2023/09/28 00:00:49;;;;;;;9.67;6.30;;;;;17.30;100889.00;;;;4917389;29;20245;-67
2023/09/28 00:03:36;;;;;;;8.63;6.00;;;;;17.30;100900.00;;;;4928812;29;20237;-67
2023/09/28 00:06:22;;;;;;;8.50;5.90;;;;;17.30;100906.00;;;;4925878;29;20244;-66
2023/09/28 00:09:10;;;;;;;7.50;6.40;;;;;17.30;100886.00;;;;4922143;29;20245;-66
2023/09/28 00:11:55;;;;;;;9.27;6.10;;;;;17.30;100901.00;;;;4922854;28;20368;-69
2023/09/28 00:14:41;;;;;;;7.43;6.30;;;;;17.30;100907.00;;;;4924080;28;20734;-67
2023/09/28 00:17:27;;;;;;;7.87;6.27;;;;;17.30;100908.00;;;;4919135;29;20237;-67
2023/09/28 00:20:17;;;;;;;9.20;6.23;;;;;17.30;100906.00;;;;4920737;29;20717;-67
2023/09/28 00:23:04;;;;;;;9.97;6.50;;;;;17.30;100905.00;;;;4926256;29;20304;-67
2023/09/28 00:25:51;;;;;;;7.90;6.50;;;;;17.30;100905.00;;;;4928831;28;20224;-67
2023/09/28 00:28:37;;;;;;;10.57;6.13;;;;;17.30;100909.00;;;;4924528;29;20237;-67
2023/09/28 00:31:23;;;;;;;8.60;6.40;;;;;17.30;100907.00;;;;4920259;29;20228;-64
2023/09/28 00:34:09;;;;;;;8.87;6.03;;;;;17.20;100903.00;;;;4918246;28;20324;-68
2023/09/28 00:36:55;;;;;;;11.07;6.17;;;;;17.20;100900.00;;;;4921090;28;20241;-69
2023/09/28 00:39:42;;;;;;;10.20;6.63;;;;;17.30;100906.00;;;;4924060;29;20233;-67
2023/09/28 00:42:27;;;;;;;10.57;6.50;;;;;17.30;100901.00;;;;4919500;28;20233;-69
2023/09/28 00:45:14;;;;;;;6.80;6.03;;;;;17.30;100908.00;;;;4919454;29;20257;-68
2023/09/28 00:48:02;;;;;;;8.87;6.67;;;;;17.30;100903.00;;;;4918599;29;20281;-68
2023/09/28 00:50:49;;;;;;;6.57;5.97;;;;;17.30;100908.00;;;;4919871;28;20232;-69
2023/09/28 00:53:39;;;;;;;8.37;6.03;;;;;17.30;100908.00;;;;4918877;29;20301;-68
2023/09/28 00:56:26;;;;;;;12.13;6.40;;;;;17.30;100904.00;;;;4926310;28;20358;-65
2023/09/28 00:59:12;;;;;;;8.20;6.30;;;;;17.30;100906.00;;;;4917845;29;20248;-68
2023/09/28 01:01:59;;;;;;;10.93;5.97;;;;;17.30;100896.00;;;;4925321;29;20244;-69
2023/09/28 01:04:45;;;;;;;8.57;6.73;;;;;17.20;100897.00;;;;4918793;29;20314;-66
2023/09/28 01:07:31;;;;;;;8.43;6.23;;;;;17.30;100894.00;;;;4919377;29;20285;-68
2023/09/28 01:10:23;;;;;;;8.17;6.30;;;;;17.30;100899.00;;;;4926687;29;20246;-67
2023/09/28 01:13:11;;;;;;;9.97;6.47;;;;;17.20;100898.00;;;;4918544;29;20263;-66
2023/09/28 01:15:58;;;;;;;7.63;6.60;;;;;17.30;100892.00;;;;4916833;29;20237;-69
2023/09/28 01:18:44;;;;;;;7.30;6.13;;;;;17.20;100885.00;;;;4912479;29;20661;-68
2023/09/28 01:21:31;;;;;;;10.43;6.27;;;;;17.20;100887.00;;;;4904411;29;20229;-67
2023/09/28 01:24:18;;;;;;;8.43;5.90;;;;;17.20;100886.00;;;;4912317;29;20250;-68
2023/09/28 01:27:06;;;;;;;9.37;6.10;;;;;17.30;100892.00;;;;4918746;29;20786;-69
2023/09/28 01:29:52;;;;;;;8.60;6.13;;;;;17.20;100904.00;;;;4925627;29;20954;-68
2023/09/28 01:32:38;;;;;;;7.63;6.10;;;;;17.20;100896.00;;;;4911639;29;20229;-67
2023/09/28 01:35:26;;;;;;;8.70;6.20;;;;;17.20;100906.00;;;;4923755;28;20239;-64
2023/09/28 01:38:19;;;;;;;7.93;5.80;;;;;17.20;100902.00;;;;4911550;29;20237;-69
2023/09/28 01:41:06;;;;;;;10.33;6.37;;;;;17.20;100908.00;;;;4916275;29;20225;-66
2023/09/28 01:43:53;;;;;;;8.23;5.90;;;;;17.20;100910.00;;;;4922428;29;20248;-69
2023/09/28 01:46:39;;;;;;;9.33;5.70;;;;;17.10;100910.00;;;;4925149;29;20232;-67
2023/09/28 01:49:26;;;;;;;8.13;6.10;;;;;17.10;100902.00;;;;4920733;28;21036;-67
2023/09/28 01:52:11;;;;;;;8.50;6.13;;;;;17.10;100903.00;;;;4919205;29;20325;-68
2023/09/28 01:54:57;;;;;;;6.67;5.63;;;;;17.10;100905.00;;;;4917458;29;20236;-66
2023/09/28 01:57:44;;;;;;;6.70;5.50;;;;;17.20;100907.00;;;;4921965;29;20236;-69
2023/09/28 02:00:31;;;;;;;7.17;5.60;;;;;17.20;100914.00;;;;4924383;29;20228;-69
2023/09/28 02:03:16;;;;;;;7.67;5.67;;;;;17.10;100909.00;;;;4925759;29;20283;-69
2023/09/28 02:06:03;;;;;;;8.17;5.47;;;;;17.20;100908.00;;;;4924443;29;20632;-69
2023/09/28 02:08:49;;;;;;;8.97;5.40;;;;;17.20;100880.00;;;;4918430;28;20623;-68
2023/09/28 02:11:43;;;;;;;6.00;5.37;;;;;17.20;100903.00;;;;4927829;29;20237;-68
2023/09/28 02:14:30;;;;;;;5.70;5.20;;;;;17.20;100904.00;;;;4921782;29;20726;-67
2023/09/28 02:17:16;;;;;;;7.37;5.67;;;;;17.20;100894.00;;;;4919048;28;20388;-68
2023/09/28 02:20:08;;;;;;;9.93;5.93;;;;;17.20;100892.00;;;;4908877;29;20297;-68
2023/09/28 02:22:54;;;;;;;7.07;5.33;;;;;17.20;100887.00;;;;4921050;29;20244;-68
2023/09/28 02:25:39;;;;;;;6.20;5.47;;;;;17.20;100892.00;;;;4923895;29;20250;-68
2023/09/28 02:28:26;;;;;;;6.67;5.07;;;;;17.10;100891.00;;;;4914740;28;20393;-67
2023/09/28 02:31:14;;;;;;;8.10;5.70;;;;;17.10;100888.00;;;;4919550;28;20233;-69
2023/09/28 02:34:00;;;;;;;7.07;5.43;;;;;17.10;100894.00;;;;4924347;29;20337;-67
2023/09/28 02:36:45;;;;;;;9.40;5.40;;;;;17.20;100889.00;;;;4915803;29;20656;-67
2023/09/28 02:39:34;;;;;;;8.27;5.40;;;;;17.20;100889.00;;;;4917358;29;20237;-69
2023/09/28 02:42:21;;;;;;;6.87;5.23;;;;;17.20;100894.00;;;;4916018;29;20915;-67
2023/09/28 02:45:11;;;;;;;5.73;5.00;;;;;17.20;100896.00;;;;4920311;28;20730;-68
2023/09/28 02:47:58;;;;;;;8.83;5.50;;;;;17.20;100900.00;;;;4912366;29;20312;-64
2023/09/28 02:50:44;;;;;;;6.33;5.17;;;;;17.10;100899.00;;;;4924918;28;20237;-70
2023/09/28 02:53:30;;;;;;;8.87;5.30;;;;;17.10;100900.00;;;;4915998;29;20245;-69
2023/09/28 02:56:17;;;;;;;7.17;5.40;;;;;17.00;100910.00;;;;4921134;29;20244;-68
2023/09/28 02:59:02;;;;;;;7.57;5.20;;;;;17.00;100916.00;;;;4916477;29;20245;-68
2023/09/28 03:01:49;;;;;;;5.70;5.10;;;;;16.90;100921.00;;;;4919361;28;20225;-68
2023/09/28 03:04:36;;;;;;;8.60;5.27;;;;;17.00;100918.00;;;;4918654;29;20237;-68
2023/09/28 03:07:22;;;;;;;6.77;5.50;;;;;16.90;100922.00;;;;4917295;29;20241;-68
2023/09/28 03:10:10;;;;;;;7.13;4.90;;;;;16.80;100924.00;;;;4926228;29;20265;-68
2023/09/28 03:12:56;;;;;;;8.43;5.47;;;;;16.80;100928.00;;;;4924377;29;20666;-68
2023/09/28 03:15:43;;;;;;;5.17;4.67;;;;;16.80;100935.00;;;;4927548;29;20232;-68
2023/09/28 03:18:29;;;;;;;6.27;5.10;;;;;16.70;100940.00;;;;4910909;29;20366;-68
2023/09/28 03:21:16;;;;;;;6.67;5.07;;;;;16.70;100935.00;;;;4918219;29;20619;-68
2023/09/28 03:24:03;;;;;;;5.90;5.03;;;;;16.70;100938.00;;;;4912395;29;20241;-65
2023/09/28 03:26:50;;;;;;;7.70;4.97;;;;;16.60;100942.00;;;;4921431;29;20236;-69
2023/09/28 03:29:53;;;;;;;8.43;5.03;;;;;16.60;100947.00;;;;4920523;29;20369;-68
2023/09/28 03:32:40;;;;;;;6.53;5.27;;;;;16.60;100948.00;;;;4914997;29;20300;-65
2023/09/28 03:35:27;;;;;;;6.87;5.10;;;;;16.60;100953.00;;;;4925672;28;20236;-68
2023/09/28 03:38:15;;;;;;;5.57;4.93;;;;;16.50;100944.00;;;;4925996;29;20308;-70
2023/09/28 03:41:01;;;;;;;5.67;5.03;;;;;16.50;100950.00;;;;4925303;29;20637;-68
2023/09/28 03:43:48;;;;;;;7.77;5.57;;;;;16.50;100952.00;;;;4927494;29;20224;-68
2023/09/28 03:46:35;;;;;;;7.20;5.77;;;;;16.40;100953.00;;;;4927473;29;20244;-67
2023/09/28 03:49:21;;;;;;;12.00;5.30;;;;;16.40;100961.00;;;;4932902;28;20768;-67
2023/09/28 03:52:08;;;;;;;7.00;5.07;;;;;16.40;100959.00;;;;4927298;29;20721;-68
2023/09/28 03:54:57;;;;;;;6.70;5.03;;;;;16.40;100964.00;;;;4911788;29;20239;-68
2023/09/28 03:57:44;;;;;;;9.10;5.17;;;;;16.40;100961.00;;;;4926078;28;20333;-68
2023/09/28 04:00:31;;;;;;;5.60;5.03;;;;;16.40;100967.00;;;;4920229;29;20301;-68
2023/09/28 04:03:17;;;;;;;7.23;5.10;;;;;16.40;100965.00;;;;4927069;28;20252;-68
2023/09/28 04:06:04;;;;;;;8.50;4.97;;;;;16.40;100969.00;;;;4914019;29;20313;-67
2023/09/28 04:08:50;;;;;;;7.10;4.70;;;;;16.30;100969.00;;;;4927841;29;20336;-66
2023/09/28 04:11:38;;;;;;;5.37;4.63;;;;;16.30;100974.00;;;;4929731;29;20605;-67
2023/09/28 04:14:24;;;;;;;7.67;5.27;;;;;16.40;100976.00;;;;4928542;29;20228;-68
2023/09/28 04:17:11;;;;;;;7.37;5.13;;;;;16.30;100974.00;;;;4920003;29;20242;-68
2023/09/28 04:19:57;;;;;;;9.07;5.23;;;;;16.30;100981.00;;;;4904920;29;20322;-67
2023/09/28 04:22:43;;;;;;;7.37;4.90;;;;;16.30;100978.00;;;;4913619;29;20241;-67
2023/09/28 04:25:30;;;;;;;6.10;4.53;;;;;16.30;100983.00;;;;4911192;29;20241;-67
2023/09/28 04:28:17;;;;;;;6.13;4.87;;;;;16.30;100982.00;;;;4925697;29;20264;-68
2023/09/28 04:31:04;;;;;;;9.40;5.10;;;;;16.30;100988.00;;;;4926612;29;20601;-68
2023/09/28 04:33:50;;;;;;;7.37;5.07;;;;;16.20;100993.00;;;;4920408;29;20297;-69
2023/09/28 04:36:38;;;;;;;5.60;4.90;;;;;16.20;100994.00;;;;4924989;28;20297;-68
2023/09/28 04:39:26;;;;;;;8.50;5.13;;;;;16.20;101004.00;;;;4922775;29;20280;-67
2023/09/28 04:42:13;;;;;;;7.53;4.80;;;;;16.10;101005.00;;;;4916648;29;20631;-69
2023/09/28 04:45:04;;;;;;;6.17;4.87;;;;;16.10;101006.00;;;;4923903;29;20727;-67
2023/09/28 04:47:51;;;;;;;7.63;4.87;;;;;16.10;101006.00;;;;4918696;29;20794;-67
2023/09/28 04:50:37;;;;;;;5.90;4.67;;;;;16.10;101014.00;;;;4928609;28;20228;-68
2023/09/28 04:53:24;;;;;;;7.27;5.30;;;;;16.10;101008.00;;;;4921327;29;20237;-68
2023/09/28 04:56:11;;;;;;;8.50;5.20;;;;;16.10;101003.00;;;;4920948;29;20234;-67
2023/09/28 04:58:58;;;;;;;6.77;5.43;;;;;16.10;101011.00;;;;4919422;29;20735;-64
2023/09/28 05:01:45;;;;;;;6.30;5.00;;;;;16.00;101015.00;;;;4924114;29;20240;-68
2023/09/28 05:04:32;;;;;;;8.33;5.10;;;;;16.00;101015.00;;;;4913550;29;20228;-68
2023/09/28 05:07:18;;;;;;;7.00;4.73;;;;;16.00;101020.00;;;;4920155;29;20342;-68
2023/09/28 05:10:06;;;;;;;9.07;5.07;;;;;16.00;101022.00;;;;4928309;29;20706;-68
2023/09/28 05:12:52;;;;;;;6.70;5.37;;;;;16.00;101023.00;;;;4924811;29;20236;-67
2023/09/28 05:15:39;;;;;;;6.53;5.13;;;;;16.00;101024.00;;;;4921965;29;20284;-68
2023/09/28 05:18:26;;;;;;;10.10;5.33;;;;;16.00;101034.00;;;;4924461;29;20237;-69
2023/09/28 05:21:13;;;;;;;8.73;5.50;;;;;16.00;101036.00;;;;4917239;29;20336;-66
2023/09/28 05:23:59;;;;;;;9.33;5.40;;;;;16.00;101027.00;;;;4917631;29;20370;-69
2023/09/28 05:26:45;;;;;;;8.07;5.40;;;;;15.90;101019.00;;;;4925130;29;20237;-65
2023/09/28 05:29:31;;;;;;;6.20;5.10;;;;;15.90;101019.00;;;;4914378;29;20229;-66
2023/09/28 05:32:17;;;;;;;9.07;5.57;;;;;15.90;101028.00;;;;4923897;29;20308;-68
2023/09/28 05:35:06;;;;;;;9.83;4.93;;;;;15.90;101027.00;;;;4916118;28;20722;-68
2023/09/28 05:37:52;;;;;;;7.50;5.30;;;;;15.90;101004.00;;;;4925522;28;20312;-69
2023/09/28 05:40:39;;;;;;;8.30;5.37;;;;;15.90;101005.00;;;;4920985;29;20236;-67
2023/09/28 05:43:25;;;;;;;8.33;5.57;;;;;15.90;100998.00;;;;4925785;29;20240;-70
2023/09/28 05:46:12;;;;;;;8.03;5.20;;;;;15.90;101004.00;;;;4928333;29;20265;-69
2023/09/28 05:48:58;;;;;;;10.67;5.73;;;;;15.90;101009.00;;;;4925209;28;20725;-68
2023/09/28 05:51:46;;;;;;;7.30;5.27;;;;;15.90;101016.00;;;;4919783;29;20381;-66
2023/09/28 05:54:32;;;;;;;7.03;5.10;;;;;15.90;101025.00;;;;4919593;28;20228;-67
2023/09/28 05:57:20;;;;;;;6.60;5.17;;;;;16.00;101034.00;;;;4913923;28;20813;-68
2023/09/28 06:00:09;;;;;;;9.27;6.27;;;;;16.00;101042.00;;;;4923679;29;20228;-68
2023/09/28 06:02:57;;;;;;;10.07;5.67;;;;;16.00;101052.00;;;;4921025;29;20237;-67
2023/09/28 06:05:44;;;;;;;10.00;5.30;;;;;16.00;101065.00;;;;4926811;29;20240;-68
2023/09/28 06:08:31;;;;;;;12.23;6.10;;;;;16.10;101075.00;;;;4918458;29;20311;-67
2023/09/28 06:11:18;;;;;;;9.20;6.00;;;;;16.10;101071.00;;;;4918075;29;20283;-67
2023/09/28 06:14:06;;;;;;;10.83;6.10;;;;;16.10;101088.00;;;;4926845;29;20232;-68
2023/09/28 06:16:53;;;;;;;7.80;5.87;;;;;16.20;101090.00;;;;4921934;28;20228;-65
2023/09/28 06:19:39;;;;;;;8.47;5.60;;;;;16.30;101103.00;;;;4917591;29;20233;-66
2023/09/28 06:22:42;;;;;;;7.70;5.37;;;;;16.30;101108.00;;;;4924395;29;20240;-68
2023/09/28 06:25:31;;;;;;;9.67;5.63;;;;;16.40;101117.00;;;;4922452;29;20322;-67
2023/09/28 06:28:17;;;;;;;10.10;6.07;;;;;16.40;101113.00;;;;4911149;29;20363;-70
2023/09/28 06:31:03;;;;;;;8.10;5.87;;;;;16.50;101129.00;;;;4916432;28;20232;-68
2023/09/28 06:33:50;;;;;;;9.17;6.07;;;;;16.60;101121.00;;;;4914614;28;20605;-68
2023/09/28 06:36:37;;;;;;;10.57;6.33;;;;;16.60;101116.00;;;;4916801;28;20285;-68
2023/09/28 06:39:28;;;;;;;9.83;6.43;;;;;16.60;101117.00;;;;4925458;29;20237;-68
2023/09/28 06:42:15;;;;;;;12.30;6.47;;;;;16.70;101127.00;;;;4918590;29;20233;-70
2023/09/28 06:45:20;;;;;;;11.83;6.73;;;;;16.70;101126.00;;;;4919011;29;20858;-68
2023/09/28 06:48:07;;;;;;;10.63;6.73;;;;;16.80;101125.00;;;;4909498;29;20309;-68
2023/09/28 06:51:05;;;;;;;8.43;5.87;;;;;16.80;101119.00;;;;4916194;29;20262;-68
2023/09/28 06:53:52;;;;;;;8.10;6.00;;;;;16.90;101116.00;;;;4923835;29;20333;-68
2023/09/28 06:56:38;;;;;;;7.33;6.03;;;;;16.90;101125.00;;;;4915205;29;20309;-68
2023/09/28 06:59:25;;;;;;;10.07;6.30;;;;;17.00;101141.00;;;;4918639;29;20301;-68
2023/09/28 07:02:12;;;;;;;9.03;6.17;;;;;17.10;101144.00;;;;4911623;29;20236;-69
2023/09/28 07:04:58;;;;;;;9.60;6.37;;;;;17.20;101142.00;;;;4904837;29;20369;-68
2023/09/28 07:07:46;;;;;;;12.47;6.83;;;;;17.30;101140.00;;;;4919669;29;20239;-69
2023/09/28 07:10:33;;;;;;;13.60;6.53;;;;;17.40;101146.00;;;;4910985;29;20290;-68
2023/09/28 07:13:19;;;;;;;10.70;6.53;;;;;17.50;101146.00;;;;4922147;29;20240;-68
2023/09/28 07:16:08;;;;;;;11.37;6.63;;;;;17.60;101141.00;;;;4922408;29;20442;-68
2023/09/28 07:18:55;;;;;;;9.77;6.60;;;;;17.60;101155.00;;;;4918062;29;20245;-68
2023/09/28 07:21:41;;;;;;;9.50;5.97;;;;;17.70;101137.00;;;;4926956;28;20256;-68
2023/09/28 07:24:29;;;;;;;11.17;7.13;;;;;17.70;101130.00;;;;4919625;29;20332;-69
2023/09/28 07:27:16;;;;;;;11.63;6.70;;;;;17.80;101137.00;;;;4922158;29;20365;-67
2023/09/28 07:30:05;;;;;;;8.87;6.77;;;;;17.90;101148.00;;;;4916025;29;20241;-67
2023/09/28 07:32:52;;;;;;;12.50;6.33;;;;;18.00;101148.00;;;;4922240;28;20702;-69
2023/09/28 07:35:39;;;;;;;9.43;6.60;;;;;18.00;101145.00;;;;4921872;28;20338;-69
2023/09/28 07:38:27;;;;;;;11.63;7.60;;;;;18.10;101155.00;;;;4915855;28;20830;-65
2023/09/28 07:41:13;;;;;;;10.63;6.83;;;;;18.20;101156.00;;;;4917346;29;20321;-68
2023/09/28 07:43:59;;;;;;;11.63;7.20;;;;;18.20;101148.00;;;;4899301;29;20244;-67
2023/09/28 07:46:46;;;;;;;10.63;6.57;;;;;18.30;101156.00;;;;4917911;28;20240;-68
2023/09/28 07:49:34;;;;;;;9.00;6.07;;;;;18.40;101160.00;;;;4923480;28;20248;-67
2023/09/28 07:52:20;;;;;;;8.70;6.27;;;;;18.50;101165.00;;;;4921212;29;20597;-66
2023/09/28 07:55:07;;;;;;;9.17;6.13;;;;;18.60;101166.00;;;;4926486;29;20225;-67
2023/09/28 07:57:54;;;;;;;8.17;5.63;;;;;18.60;101185.00;;;;4923628;29;20249;-68
2023/09/28 08:00:53;;;;;;;11.47;5.23;;;;;18.70;101172.00;;;;4914606;28;20726;-67
2023/09/28 08:03:40;;;;;;;9.50;5.53;;;;;18.70;101188.00;;;;4917314;29;20741;-67
2023/09/28 08:06:27;;;;;;;8.47;5.03;;;;;18.70;101178.00;;;;4919843;28;20602;-68
2023/09/28 08:09:16;;;;;;;10.00;5.13;;;;;18.90;101196.00;;;;4924213;29;20925;-68
2023/09/28 08:12:02;;;;;;;12.30;5.30;;;;;18.90;101194.00;;;;4917781;29;20885;-70
2023/09/28 08:14:49;;;;;;;8.73;4.90;;;;;19.00;101196.00;;;;4915637;29;20220;-69
2023/09/28 08:17:36;;;;;;;8.27;4.93;;;;;19.10;101197.00;;;;4924476;28;20241;-68
2023/09/28 08:20:26;;;;;;;8.00;4.40;;;;;19.10;101203.00;;;;4921354;28;20237;-66
2023/09/28 08:23:13;;;;;;;9.03;4.53;;;;;19.20;101201.00;;;;4918537;28;20233;-68
2023/09/28 08:25:59;;;;;;;10.63;4.40;;;;;19.20;101206.00;;;;4924722;29;20588;-68
2023/09/28 08:28:46;;;;;;;13.67;4.70;;;;;19.30;101210.00;;;;4929629;29;20265;-68
2023/09/28 08:31:33;;;;;;;7.30;4.17;;;;;19.30;101203.00;;;;4911759;29;20313;-69
2023/09/28 08:34:20;;;;;;;6.83;4.20;;;;;19.40;101203.00;;;;4926751;29;20309;-68
2023/09/28 08:37:24;;;;;;;10.30;4.27;;;;;19.50;101199.00;;;;4919417;29;20604;-68
2023/09/28 08:40:13;;;;;;;7.43;3.93;;;;;19.60;101201.00;;;;4921132;29;20632;-67
2023/09/28 08:43:04;;;;;;;11.50;4.60;;;;;19.70;101208.00;;;;4905907;29;20646;-65
2023/09/28 08:45:52;;;;;;;7.77;4.00;;;;;19.70;101215.00;;;;4923087;29;20734;-68
2023/09/28 08:48:44;;;;;;;7.40;4.10;;;;;19.90;101235.00;;;;4919042;28;20304;-67
2023/09/28 08:51:33;;;;;;;11.90;4.20;;;;;20.00;101225.00;;;;4916414;29;20440;-70
2023/09/28 08:54:20;;;;;;;6.47;4.00;;;;;20.00;101242.00;;;;4922362;29;20744;-70
2023/09/28 08:57:08;;;;;;;6.87;3.27;;;;;20.10;101241.00;;;;4922883;29;20234;-70
2023/09/28 08:59:56;;;;;;;11.07;4.13;;;;;20.00;101248.00;;;;4927076;29;20242;-67
2023/09/28 09:02:43;;;;;;;16.07;4.20;;;;;20.00;101237.00;;;;4922837;28;20240;-69
2023/09/28 09:05:31;;;;;;;19.33;4.70;;;;;19.90;101245.00;;;;4905323;29;20246;-69
2023/09/28 09:08:19;;;;;;;8.33;3.60;;;;;20.00;101243.00;;;;4921956;29;20667;-71
2023/09/28 09:11:07;;;;;;;8.37;3.90;;;;;19.90;101243.00;;;;4915435;29;20259;-70
2023/09/28 09:13:55;;;;;;;10.23;3.87;;;;;19.90;101242.00;;;;4920573;28;20226;-67
2023/09/28 09:16:43;;;;;;;8.03;4.07;;;;;20.00;101248.00;;;;4914396;28;20249;-69
2023/09/28 09:19:31;;;;;;;10.40;4.07;;;;;20.10;101249.00;;;;4911228;29;20600;-66
2023/09/28 09:22:28;;;;;;;8.60;4.07;;;;;20.10;101246.00;;;;4919601;29;20311;-70
2023/09/28 09:25:23;;;;;;;9.00;4.10;;;;;20.20;101234.00;;;;4928843;28;20231;-68
2023/09/28 09:28:13;;;;;;;13.03;4.27;;;;;20.20;101244.00;;;;4916196;29;20681;-71
2023/09/28 09:31:02;;;;;;;8.20;4.20;;;;;20.30;101245.00;;;;4927845;29;20254;-69
2023/09/28 09:33:50;;;;;;;6.43;3.73;;;;;20.30;101254.00;;;;4924361;29;20258;-69
2023/09/28 09:36:36;;;;;;;10.70;3.43;;;;;20.40;101251.00;;;;4921490;29;20243;-69
2023/09/28 09:39:24;;;;;;;7.00;3.53;;;;;20.40;101255.00;;;;4927079;29;20237;-69
2023/09/28 09:42:11;;;;;;;7.87;3.43;;;;;20.40;101257.00;;;;4927677;28;20363;-69
2023/09/28 09:44:57;;;;;;;7.13;3.40;;;;;20.50;101268.00;;;;4926010;29;20650;-71
2023/09/28 09:47:47;;;;;;;5.23;3.23;;;;;20.60;101252.00;;;;4922838;29;20248;-69
2023/09/28 09:50:35;;;;;;;5.60;3.00;;;;;20.70;101260.00;;;;4918916;29;20232;-71
2023/09/28 09:53:22;;;;;;;7.23;3.30;;;;;20.80;101259.00;;;;4925246;29;20243;-69
2023/09/28 09:56:09;;;;;;;9.07;3.17;;;;;21.00;101264.00;;;;4920354;29;20288;-69
2023/09/28 09:58:57;;;;;;;8.00;3.30;;;;;21.20;101268.00;;;;4917784;29;20307;-72
2023/09/28 10:01:47;;;;;;;6.03;2.93;;;;;21.40;101262.00;;;;4925201;28;20330;-71
2023/09/28 10:04:34;;;;;;;7.90;3.10;;;;;21.50;101260.00;;;;4923934;28;20235;-70
2023/09/28 10:07:25;;;;;;;6.47;3.10;;;;;21.50;101265.00;;;;4921295;29;20632;-69
2023/09/28 10:10:33;;;;;;;9.13;2.90;;;;;21.40;101252.00;;;;4919943;29;20236;-70
2023/09/28 10:13:20;;;;;;;10.67;3.40;;;;;21.40;101271.00;;;;4927398;29;20228;-68
2023/09/28 10:16:09;;;;;;;5.70;2.80;;;;;21.50;101272.00;;;;4922579;29;20436;-70
2023/09/28 10:18:56;;;;;;;9.93;2.93;;;;;21.60;101268.00;;;;4923217;28;20244;-69
2023/09/28 10:21:44;;;;;;;13.77;3.43;;;;;21.70;101272.00;;;;4927142;29;20805;-70
2023/09/28 10:24:34;;;;;;;14.77;6.17;;;;;21.60;101262.00;;;;4923768;29;20235;-70
2023/09/28 10:27:21;;;;;;;5.33;3.27;;;;;21.70;101268.00;;;;4919587;29;20225;-70
2023/09/28 10:30:18;;;;;;;7.17;3.40;;;;;21.70;101269.00;;;;4916228;29;20255;-71
2023/09/28 10:33:10;;;;;;;7.00;2.67;;;;;21.60;101267.00;;;;4915461;29;20248;-68
2023/09/28 10:36:12;;;;;;;7.33;3.13;;;;;21.70;101275.00;;;;4918783;29;20245;-70
2023/09/28 10:39:13;;;;;;;8.47;3.20;;;;;21.60;101268.00;;;;4916614;29;20741;-70
2023/09/28 10:42:05;;;;;;;8.63;3.37;;;;;21.70;101269.00;;;;4909897;29;20364;-70
2023/09/28 10:44:54;;;;;;;12.77;4.43;;;;;21.70;101266.00;;;;4916582;29;20334;-70
2023/09/28 10:47:40;;;;;;;9.07;4.47;;;;;21.80;101268.00;;;;4927147;29;20612;-71
2023/09/28 10:50:27;;;;;;;6.10;3.00;;;;;22.00;101265.00;;;;4927502;28;20279;-67
2023/09/28 10:53:14;;;;;;;13.60;3.20;;;;;22.10;101252.00;;;;4923846;29;20247;-70
2023/09/28 10:56:01;;;;;;;6.90;3.20;;;;;22.30;101265.00;;;;4912714;28;20237;-70
2023/09/28 10:58:48;;;;;;;7.27;3.10;;;;;22.30;101266.00;;;;4917461;28;20229;-69
2023/09/28 11:01:40;;;;;;;10.37;3.30;;;;;22.30;101257.00;;;;4915717;28;20256;-70
2023/09/28 11:04:28;;;;;;;7.77;3.30;;;;;22.50;101268.00;;;;4916400;28;20225;-70
2023/09/28 11:07:33;;;;;;;8.80;3.63;;;;;22.50;101272.00;;;;4909264;29;20324;-70
2023/09/28 11:10:23;;;;;;;9.40;3.23;;;;;22.10;101282.00;;;;4923587;29;20252;-69
2023/09/28 11:13:11;;;;;;;14.03;3.70;;;;;22.00;101273.00;;;;4922424;29;20229;-69
2023/09/28 11:15:58;;;;;;;11.70;3.53;;;;;21.90;101272.00;;;;4926070;29;20306;-69
2023/09/28 11:18:44;;;;;;;8.60;3.77;;;;;22.00;101265.00;;;;4921442;29;20252;-70
2023/09/28 11:21:31;;;;;;;4.93;3.50;;;;;22.10;101255.00;;;;4924737;29;20233;-70
2023/09/28 11:24:18;;;;;;;8.30;3.90;;;;;22.10;101259.00;;;;4925253;29;20349;-71
2023/09/28 11:27:04;;;;;;;9.60;3.87;;;;;22.20;101260.00;;;;4920245;29;20791;-69
2023/09/28 11:29:55;;;;;;;8.97;3.93;;;;;22.20;101260.00;;;;4918232;28;20236;-69
2023/09/28 11:32:50;;;;;;;8.10;4.10;;;;;22.30;101265.00;;;;4923472;29;20224;-69
2023/09/28 11:35:38;;;;;;;10.70;4.60;;;;;22.50;101265.00;;;;4917395;28;20770;-70
2023/09/28 11:38:25;;;;;;;13.03;4.17;;;;;22.70;101262.00;;;;4921917;29;20320;-69
2023/09/28 11:41:12;;;;;;;10.60;4.00;;;;;22.80;101260.00;;;;4926370;29;20746;-70
2023/09/28 11:43:58;;;;;;;7.87;4.00;;;;;22.90;101259.00;;;;4927904;29;20241;-68
2023/09/28 11:46:46;;;;;;;7.80;4.30;;;;;22.80;101259.00;;;;4918472;29;20237;-67
2023/09/28 11:49:36;;;;;;;8.03;4.10;;;;;22.80;101258.00;;;;4916155;29;20305;-68
2023/09/28 11:52:23;;;;;;;9.27;4.33;;;;;22.80;101252.00;;;;4916371;29;20240;-69
2023/09/28 11:55:14;;;;;;;9.70;4.13;;;;;22.80;101249.00;;;;4921726;29;20245;-70
2023/09/28 11:58:02;;;;;;;10.20;4.00;;;;;22.70;101250.00;;;;4921110;29;20787;-70
2023/09/28 12:00:49;;;;;;;6.23;3.90;;;;;22.60;101252.00;;;;4922048;28;20229;-66
2023/09/28 12:03:38;;;;;;;11.77;4.20;;;;;22.60;101256.00;;;;4928283;29;20368;-67
2023/09/28 12:06:25;;;;;;;8.57;4.00;;;;;22.60;101250.00;;;;4925938;29;20237;-70
2023/09/28 12:09:11;;;;;;;10.97;4.03;;;;;22.50;101245.00;;;;4926207;29;20248;-69
2023/09/28 12:11:57;;;;;;;9.17;3.60;;;;;22.50;101242.00;;;;4912358;29;20233;-66
2023/09/28 12:14:44;;;;;;;9.10;4.00;;;;;22.50;101243.00;;;;4918427;29;20235;-66
2023/09/28 12:17:31;;;;;;;8.77;3.40;;;;;22.40;101244.00;;;;4925079;28;20245;-70
2023/09/28 12:20:20;;;;;;;7.50;3.80;;;;;22.30;101249.00;;;;4923435;29;20636;-70
2023/09/28 12:23:06;;;;;;;9.83;3.87;;;;;22.40;101255.00;;;;4914089;29;20237;-69
2023/09/28 12:25:54;;;;;;;10.23;3.90;;;;;22.40;101263.00;;;;4917132;29;20246;-69
2023/09/28 12:28:41;;;;;;;12.27;3.87;;;;;22.30;101268.00;;;;4919161;28;20765;-70
2023/09/28 12:31:28;;;;;;;7.53;3.77;;;;;22.30;101272.00;;;;4923529;29;20819;-69
2023/09/28 12:34:14;;;;;;;5.57;3.63;;;;;22.30;101263.00;;;;4923058;29;20241;-69
2023/09/28 12:37:02;;;;;;;9.73;3.90;;;;;22.40;101262.00;;;;4920208;28;20768;-68
2023/09/28 12:39:53;;;;;;;9.43;4.10;;;;;22.50;101258.00;;;;4929489;29;20225;-69
2023/09/28 12:42:39;;;;;;;7.30;4.30;;;;;22.40;101266.00;;;;4914394;29;20369;-69
2023/09/28 12:45:26;;;;;;;10.03;3.83;;;;;22.40;101266.00;;;;4926796;29;20308;-69
2023/09/28 12:48:17;;;;;;;8.30;3.87;;;;;22.40;101265.00;;;;4927242;29;20240;-70
2023/09/28 12:51:04;;;;;;;7.90;3.93;;;;;22.40;101258.00;;;;4925468;28;20373;-70
2023/09/28 12:53:52;;;;;;;7.20;3.80;;;;;22.40;101256.00;;;;4920461;28;20228;-69
2023/09/28 12:56:39;;;;;;;5.23;3.80;;;;;22.30;101254.00;;;;4926673;28;20337;-69
2023/09/28 12:59:26;;;;;;;9.20;3.87;;;;;22.40;101253.00;;;;4926633;29;20300;-66
2023/09/28 13:02:12;;;;;;;7.30;4.40;;;;;22.50;101250.00;;;;4917746;29;20240;-67
2023/09/28 13:05:00;;;;;;;9.53;5.20;;;;;22.50;101248.00;;;;4914599;29;20365;-70
2023/09/28 13:07:48;;;;;;;7.77;4.70;;;;;22.50;101242.00;;;;4919590;29;20284;-70
2023/09/28 13:10:36;;;;;;;8.43;4.50;;;;;22.40;101248.00;;;;4928436;29;20300;-67
2023/09/28 13:13:22;;;;;;;13.13;4.80;;;;;22.30;101245.00;;;;4923268;29;20233;-70
2023/09/28 13:16:08;;;;;;;8.30;4.70;;;;;22.30;101253.00;;;;4923561;29;21065;-69
2023/09/28 13:18:55;;;;;;;7.77;4.70;;;;;22.30;101252.00;;;;4917466;28;20249;-67
2023/09/28 13:21:42;;;;;;;8.00;4.87;;;;;22.20;101262.00;;;;4918811;28;20232;-69
2023/09/28 13:24:28;;;;;;;11.17;5.20;;;;;22.10;101250.00;;;;4922169;29;20988;-69
2023/09/28 13:27:19;;;;;;;7.00;4.67;;;;;22.20;101254.00;;;;4916321;29;20358;-69
2023/09/28 13:30:11;;;;;;;8.27;4.50;;;;;22.20;101248.00;;;;4918075;29;20245;-68
2023/09/28 13:32:58;;;;;;;8.27;4.60;;;;;22.20;101247.00;;;;4918873;29;20309;-69
2023/09/28 13:35:45;;;;;;;8.80;4.30;;;;;22.30;101247.00;;;;4923196;29;20291;-66
2023/09/28 13:38:31;;;;;;;8.50;3.80;;;;;22.40;101251.00;;;;4927749;29;20336;-71
2023/09/28 13:41:17;;;;;;;9.87;4.40;;;;;22.50;101256.00;;;;4921417;29;20240;-71
2023/09/28 13:44:06;;;;;;;9.50;4.20;;;;;22.40;101268.00;;;;4920729;29;20714;-69
2023/09/28 13:46:53;;;;;;;9.37;3.93;;;;;22.30;101256.00;;;;4922779;29;20241;-69